sensor_id;sensor_type;location;lat;lon;timestamp;temperature;humidity
10828;DHT22;5467;59.334;13.512;2022-12-07T00:01:19;-2.40;99.90
10828;DHT22;5467;59.334;13.512;2022-12-07T00:03:47;-2.50;99.90
10828;DHT22;5467;59.334;13.512;2022-12-07T00:06:16;-2.60;99.90
10828;DHT22;5467;59.334;13.512;2022-12-07T00:08:43;-2.60;99.90
10828;DHT22;5467;59.334;13.512;2022-12-07T00:11:14;-2.50;99.90
10828;DHT22;5467;59.334;13.512;2022-12-07T00:13:41;-2.50;99.90
10828;DHT22;5467;59.334;13.512;2022-12-07T00:16:10;-2.50;99.90
10828;DHT22;5467;59.334;13.512;2022-12-07T00:18:38;-2.50;99.90
10828;DHT22;5467;59.334;13.512;2022-12-07T00:21:06;-2.60;99.90
10828;DHT22;5467;59.334;13.512;2022-12-07T00:23:34;-2.60;99.90
10828;DHT22;5467;59.334;13.512;2022-12-07T00:26:05;-2.60;99.90
10828;DHT22;5467;59.334;13.512;2022-12-07T00:28:33;-2.60;99.90
10828;DHT22;5467;59.334;13.512;2022-12-07T00:31:06;-2.50;99.90
10828;DHT22;5467;59.334;13.512;2022-12-07T00:33:33;-2.50;99.90
10828;DHT22;5467;59.334;13.512;2022-12-07T00:36:01;-2.50;99.90
10828;DHT22;5467;59.334;13.512;2022-12-07T00:38:29;-2.40;99.90
10828;DHT22;5467;59.334;13.512;2022-12-07T00:40:57;-2.50;99.90
10828;DHT22;5467;59.334;13.512;2022-12-07T00:43:24;-2.50;99.90
10828;DHT22;5467;59.334;13.512;2022-12-07T00:45:53;-2.50;99.90
10828;DHT22;5467;59.334;13.512;2022-12-07T00:48:21;-2.50;99.90
10828;DHT22;5467;59.334;13.512;2022-12-07T00:50:48;-2.50;99.90
10828;DHT22;5467;59.334;13.512;2022-12-07T00:53:15;-2.50;99.90
10828;DHT22;5467;59.334;13.512;2022-12-07T00:55:43;-2.50;99.90
10828;DHT22;5467;59.334;13.512;2022-12-07T00:58:11;-2.50;99.90
10828;DHT22;5467;59.334;13.512;2022-12-07T01:00:39;-2.50;99.90
10828;DHT22;5467;59.334;13.512;2022-12-07T01:03:10;-2.50;99.90
10828;DHT22;5467;59.334;13.512;2022-12-07T01:05:37;-2.50;99.90
10828;DHT22;5467;59.334;13.512;2022-12-07T01:08:05;-2.50;99.90
10828;DHT22;5467;59.334;13.512;2022-12-07T01:10:32;-2.40;99.90
10828;DHT22;5467;59.334;13.512;2022-12-07T01:12:59;-2.50;99.90
10828;DHT22;5467;59.334;13.512;2022-12-07T01:15:26;-2.50;99.90
10828;DHT22;5467;59.334;13.512;2022-12-07T01:17:53;-2.50;99.90
10828;DHT22;5467;59.334;13.512;2022-12-07T01:20:22;-2.40;99.90
10828;DHT22;5467;59.334;13.512;2022-12-07T01:22:49;-2.40;99.90
10828;DHT22;5467;59.334;13.512;2022-12-07T01:25:16;-2.30;99.90
10828;DHT22;5467;59.334;13.512;2022-12-07T01:27:43;-2.30;99.90
10828;DHT22;5467;59.334;13.512;2022-12-07T01:30:11;-2.30;99.90
10828;DHT22;5467;59.334;13.512;2022-12-07T01:32:39;-2.40;99.90
10828;DHT22;5467;59.334;13.512;2022-12-07T01:35:06;-2.40;99.90
10828;DHT22;5467;59.334;13.512;2022-12-07T01:37:36;-2.40;99.90
10828;DHT22;5467;59.334;13.512;2022-12-07T01:40:04;-2.30;99.90
10828;DHT22;5467;59.334;13.512;2022-12-07T01:42:31;-2.30;99.90
10828;DHT22;5467;59.334;13.512;2022-12-07T01:45:37;-2.40;99.90
10828;DHT22;5467;59.334;13.512;2022-12-07T01:48:05;-2.40;99.90
10828;DHT22;5467;59.334;13.512;2022-12-07T01:50:34;-2.40;99.90
10828;DHT22;5467;59.334;13.512;2022-12-07T01:53:06;-2.50;99.90
10828;DHT22;5467;59.334;13.512;2022-12-07T01:55:37;-2.70;99.90
10828;DHT22;5467;59.334;13.512;2022-12-07T01:58:05;-2.70;99.90
10828;DHT22;5467;59.334;13.512;2022-12-07T02:00:32;-2.80;99.90
10828;DHT22;5467;59.334;13.512;2022-12-07T02:03:04;-2.80;99.90
10828;DHT22;5467;59.334;13.512;2022-12-07T02:05:34;-2.70;99.90
10828;DHT22;5467;59.334;13.512;2022-12-07T02:08:03;-2.70;99.90
10828;DHT22;5467;59.334;13.512;2022-12-07T02:10:32;-2.70;99.90
10828;DHT22;5467;59.334;13.512;2022-12-07T02:13:02;-2.70;99.90
10828;DHT22;5467;59.334;13.512;2022-12-07T02:15:38;-2.80;99.90
10828;DHT22;5467;59.334;13.512;2022-12-07T02:18:11;-2.80;99.90
10828;DHT22;5467;59.334;13.512;2022-12-07T02:20:42;-2.80;99.90
10828;DHT22;5467;59.334;13.512;2022-12-07T02:23:39;-2.80;99.90
10828;DHT22;5467;59.334;13.512;2022-12-07T02:26:28;-2.80;99.90
10828;DHT22;5467;59.334;13.512;2022-12-07T02:29:12;-2.90;99.90
10828;DHT22;5467;59.334;13.512;2022-12-07T02:31:44;-2.90;99.90
10828;DHT22;5467;59.334;13.512;2022-12-07T02:34:20;-3.00;99.90
10828;DHT22;5467;59.334;13.512;2022-12-07T02:36:54;-2.70;99.90
10828;DHT22;5467;59.334;13.512;2022-12-07T02:39:28;-2.80;99.90
10828;DHT22;5467;59.334;13.512;2022-12-07T02:42:02;-2.80;99.90
10828;DHT22;5467;59.334;13.512;2022-12-07T02:44:31;-2.80;99.90
10828;DHT22;5467;59.334;13.512;2022-12-07T02:47:02;-2.80;99.90
10828;DHT22;5467;59.334;13.512;2022-12-07T02:49:30;-2.80;99.90
10828;DHT22;5467;59.334;13.512;2022-12-07T02:51:58;-2.80;99.90
10828;DHT22;5467;59.334;13.512;2022-12-07T02:54:25;-2.90;99.90
10828;DHT22;5467;59.334;13.512;2022-12-07T02:56:57;-2.90;99.90
10828;DHT22;5467;59.334;13.512;2022-12-07T02:59:38;-2.80;99.90
10828;DHT22;5467;59.334;13.512;2022-12-07T03:02:16;-2.90;99.90
10828;DHT22;5467;59.334;13.512;2022-12-07T03:04:50;-2.80;99.90
10828;DHT22;5467;59.334;13.512;2022-12-07T03:07:25;-2.90;99.90
10828;DHT22;5467;59.334;13.512;2022-12-07T03:09:58;-2.90;99.90
10828;DHT22;5467;59.334;13.512;2022-12-07T03:12:31;-2.90;99.90
10828;DHT22;5467;59.334;13.512;2022-12-07T03:15:04;-2.90;99.90
10828;DHT22;5467;59.334;13.512;2022-12-07T03:17:35;-2.90;99.90
10828;DHT22;5467;59.334;13.512;2022-12-07T03:20:06;-2.90;99.90
10828;DHT22;5467;59.334;13.512;2022-12-07T03:22:35;-2.90;99.90
10828;DHT22;5467;59.334;13.512;2022-12-07T03:25:07;-2.90;99.90
10828;DHT22;5467;59.334;13.512;2022-12-07T03:27:39;-3.00;99.90
10828;DHT22;5467;59.334;13.512;2022-12-07T03:30:12;-3.10;99.90
10828;DHT22;5467;59.334;13.512;2022-12-07T03:32:43;-3.10;99.90
10828;DHT22;5467;59.334;13.512;2022-12-07T03:35:14;-3.10;99.90
10828;DHT22;5467;59.334;13.512;2022-12-07T03:37:47;-3.10;99.90
10828;DHT22;5467;59.334;13.512;2022-12-07T03:40:18;-3.10;99.90
10828;DHT22;5467;59.334;13.512;2022-12-07T03:42:48;-3.10;99.90
10828;DHT22;5467;59.334;13.512;2022-12-07T03:45:17;-3.10;99.90
10828;DHT22;5467;59.334;13.512;2022-12-07T03:47:48;-3.00;99.90
10828;DHT22;5467;59.334;13.512;2022-12-07T03:50:24;-3.10;99.90
10828;DHT22;5467;59.334;13.512;2022-12-07T03:52:55;-3.10;99.90
10828;DHT22;5467;59.334;13.512;2022-12-07T03:55:26;-3.20;99.90
10828;DHT22;5467;59.334;13.512;2022-12-07T03:57:58;-3.20;99.90
10828;DHT22;5467;59.334;13.512;2022-12-07T04:00:28;-3.20;99.90
10828;DHT22;5467;59.334;13.512;2022-12-07T04:02:55;-3.30;99.90
10828;DHT22;5467;59.334;13.512;2022-12-07T04:05:23;-3.30;99.90
10828;DHT22;5467;59.334;13.512;2022-12-07T04:07:50;-3.20;99.90
10828;DHT22;5467;59.334;13.512;2022-12-07T04:10:17;-3.30;99.90
10828;DHT22;5467;59.334;13.512;2022-12-07T04:12:45;-3.20;99.90
10828;DHT22;5467;59.334;13.512;2022-12-07T04:15:12;-3.20;99.90
10828;DHT22;5467;59.334;13.512;2022-12-07T04:17:40;-3.40;99.90
10828;DHT22;5467;59.334;13.512;2022-12-07T04:20:08;-3.40;99.90
10828;DHT22;5467;59.334;13.512;2022-12-07T04:22:36;-3.50;99.90
10828;DHT22;5467;59.334;13.512;2022-12-07T04:25:03;-3.50;99.90
10828;DHT22;5467;59.334;13.512;2022-12-07T04:27:30;-3.50;99.90
10828;DHT22;5467;59.334;13.512;2022-12-07T04:29:57;-3.60;99.90
10828;DHT22;5467;59.334;13.512;2022-12-07T04:32:24;-3.60;99.90
10828;DHT22;5467;59.334;13.512;2022-12-07T04:34:53;-3.50;99.90
10828;DHT22;5467;59.334;13.512;2022-12-07T04:37:20;-3.60;99.90
10828;DHT22;5467;59.334;13.512;2022-12-07T04:39:47;-3.70;99.90
10828;DHT22;5467;59.334;13.512;2022-12-07T04:42:13;-3.70;99.90
10828;DHT22;5467;59.334;13.512;2022-12-07T04:44:40;-3.80;99.90
10828;DHT22;5467;59.334;13.512;2022-12-07T04:47:07;-3.80;99.90
10828;DHT22;5467;59.334;13.512;2022-12-07T04:49:34;-3.80;99.90
10828;DHT22;5467;59.334;13.512;2022-12-07T04:52:03;-3.90;99.90
10828;DHT22;5467;59.334;13.512;2022-12-07T04:54:30;-3.90;99.90
10828;DHT22;5467;59.334;13.512;2022-12-07T04:56:57;-3.90;99.90
10828;DHT22;5467;59.334;13.512;2022-12-07T04:59:24;-3.90;99.90
10828;DHT22;5467;59.334;13.512;2022-12-07T05:01:51;-4.00;99.90
10828;DHT22;5467;59.334;13.512;2022-12-07T05:04:18;-4.10;99.90
10828;DHT22;5467;59.334;13.512;2022-12-07T05:06:45;-4.00;99.90
10828;DHT22;5467;59.334;13.512;2022-12-07T05:09:13;-4.00;99.90
10828;DHT22;5467;59.334;13.512;2022-12-07T05:11:40;-4.00;99.90
10828;DHT22;5467;59.334;13.512;2022-12-07T05:14:10;-4.00;99.90
10828;DHT22;5467;59.334;13.512;2022-12-07T05:16:39;-4.20;99.90
10828;DHT22;5467;59.334;13.512;2022-12-07T05:19:06;-4.10;99.90
10828;DHT22;5467;59.334;13.512;2022-12-07T05:21:34;-4.20;99.90
10828;DHT22;5467;59.334;13.512;2022-12-07T05:24:01;-4.30;99.90
10828;DHT22;5467;59.334;13.512;2022-12-07T05:26:30;-4.20;99.90
10828;DHT22;5467;59.334;13.512;2022-12-07T05:28:57;-4.20;99.90
10828;DHT22;5467;59.334;13.512;2022-12-07T05:31:26;-4.20;99.90
10828;DHT22;5467;59.334;13.512;2022-12-07T05:33:54;-4.30;99.90
10828;DHT22;5467;59.334;13.512;2022-12-07T05:36:22;-4.30;99.90
10828;DHT22;5467;59.334;13.512;2022-12-07T05:38:49;-4.40;99.90
10828;DHT22;5467;59.334;13.512;2022-12-07T05:41:17;-4.50;99.90
10828;DHT22;5467;59.334;13.512;2022-12-07T05:44:04;-4.60;99.90
10828;DHT22;5467;59.334;13.512;2022-12-07T05:46:31;-4.70;99.90
10828;DHT22;5467;59.334;13.512;2022-12-07T05:48:58;-4.80;99.90
10828;DHT22;5467;59.334;13.512;2022-12-07T05:51:25;-4.80;99.90
10828;DHT22;5467;59.334;13.512;2022-12-07T05:53:52;-4.90;99.90
10828;DHT22;5467;59.334;13.512;2022-12-07T05:56:19;-5.00;99.90
10828;DHT22;5467;59.334;13.512;2022-12-07T05:58:46;-5.10;99.90
10828;DHT22;5467;59.334;13.512;2022-12-07T06:01:32;-5.20;99.90
10828;DHT22;5467;59.334;13.512;2022-12-07T06:03:59;-5.10;99.90
10828;DHT22;5467;59.334;13.512;2022-12-07T06:06:26;-5.30;99.90
10828;DHT22;5467;59.334;13.512;2022-12-07T06:08:53;-5.30;99.90
10828;DHT22;5467;59.334;13.512;2022-12-07T06:11:20;-5.40;99.90
10828;DHT22;5467;59.334;13.512;2022-12-07T06:14:04;-5.40;99.90
10828;DHT22;5467;59.334;13.512;2022-12-07T06:16:33;-5.30;99.90
10828;DHT22;5467;59.334;13.512;2022-12-07T06:19:00;-5.50;99.90
10828;DHT22;5467;59.334;13.512;2022-12-07T06:21:27;-5.60;99.90
10828;DHT22;5467;59.334;13.512;2022-12-07T06:23:53;-5.60;99.90
10828;DHT22;5467;59.334;13.512;2022-12-07T06:26:20;-5.60;99.90
10828;DHT22;5467;59.334;13.512;2022-12-07T06:28:47;-5.50;99.90
10828;DHT22;5467;59.334;13.512;2022-12-07T06:31:14;-5.60;99.90
10828;DHT22;5467;59.334;13.512;2022-12-07T06:33:43;-5.60;99.90
10828;DHT22;5467;59.334;13.512;2022-12-07T06:36:10;-5.60;99.90
10828;DHT22;5467;59.334;13.512;2022-12-07T06:38:38;-5.70;99.90
10828;DHT22;5467;59.334;13.512;2022-12-07T06:41:05;-5.70;99.90
10828;DHT22;5467;59.334;13.512;2022-12-07T06:43:32;-5.80;99.90
10828;DHT22;5467;59.334;13.512;2022-12-07T06:45:59;-5.80;99.90
10828;DHT22;5467;59.334;13.512;2022-12-07T06:48:26;-5.70;99.90
10828;DHT22;5467;59.334;13.512;2022-12-07T06:50:55;-5.80;99.90
10828;DHT22;5467;59.334;13.512;2022-12-07T06:53:22;-5.80;99.90
10828;DHT22;5467;59.334;13.512;2022-12-07T06:55:49;-5.80;99.90
10828;DHT22;5467;59.334;13.512;2022-12-07T06:58:16;-5.70;99.90
10828;DHT22;5467;59.334;13.512;2022-12-07T07:00:44;-5.90;99.90
10828;DHT22;5467;59.334;13.512;2022-12-07T07:03:11;-5.90;99.90
10828;DHT22;5467;59.334;13.512;2022-12-07T07:05:38;-6.00;99.90
10828;DHT22;5467;59.334;13.512;2022-12-07T07:08:07;-5.90;99.90
10828;DHT22;5467;59.334;13.512;2022-12-07T07:10:35;-5.90;99.90
10828;DHT22;5467;59.334;13.512;2022-12-07T07:13:02;-5.90;99.90
10828;DHT22;5467;59.334;13.512;2022-12-07T07:15:29;-6.00;99.90
10828;DHT22;5467;59.334;13.512;2022-12-07T07:17:56;-6.10;99.90
10828;DHT22;5467;59.334;13.512;2022-12-07T07:20:23;-6.00;99.90
10828;DHT22;5467;59.334;13.512;2022-12-07T07:22:50;-6.10;99.90
10828;DHT22;5467;59.334;13.512;2022-12-07T07:25:21;-6.00;99.90
10828;DHT22;5467;59.334;13.512;2022-12-07T07:27:48;-5.90;99.90
10828;DHT22;5467;59.334;13.512;2022-12-07T07:30:15;-5.90;99.90
10828;DHT22;5467;59.334;13.512;2022-12-07T07:32:42;-5.70;99.90
10828;DHT22;5467;59.334;13.512;2022-12-07T07:35:09;-5.80;99.90
10828;DHT22;5467;59.334;13.512;2022-12-07T07:37:36;-5.80;99.90
10828;DHT22;5467;59.334;13.512;2022-12-07T07:40:04;-5.90;99.90
10828;DHT22;5467;59.334;13.512;2022-12-07T07:42:33;-5.80;99.90
10828;DHT22;5467;59.334;13.512;2022-12-07T07:45:00;-5.90;99.90
10828;DHT22;5467;59.334;13.512;2022-12-07T07:47:27;-5.90;99.90
10828;DHT22;5467;59.334;13.512;2022-12-07T07:49:54;-5.90;99.90
10828;DHT22;5467;59.334;13.512;2022-12-07T07:52:21;-5.80;99.90
10828;DHT22;5467;59.334;13.512;2022-12-07T07:54:48;-5.80;99.90
10828;DHT22;5467;59.334;13.512;2022-12-07T07:57:16;-5.80;99.90
10828;DHT22;5467;59.334;13.512;2022-12-07T07:59:44;-5.90;99.90
10828;DHT22;5467;59.334;13.512;2022-12-07T08:02:14;-5.90;99.90
10828;DHT22;5467;59.334;13.512;2022-12-07T08:04:42;-6.00;99.90
10828;DHT22;5467;59.334;13.512;2022-12-07T08:07:09;-6.00;99.90
10828;DHT22;5467;59.334;13.512;2022-12-07T08:09:36;-6.00;99.90
10828;DHT22;5467;59.334;13.512;2022-12-07T08:12:03;-5.90;99.90
10828;DHT22;5467;59.334;13.512;2022-12-07T08:14:30;-5.90;99.90
10828;DHT22;5467;59.334;13.512;2022-12-07T08:17:02;-5.80;99.90
10828;DHT22;5467;59.334;13.512;2022-12-07T08:19:29;-6.00;99.90
10828;DHT22;5467;59.334;13.512;2022-12-07T08:21:56;-6.00;99.90
10828;DHT22;5467;59.334;13.512;2022-12-07T08:24:23;-6.10;99.90
10828;DHT22;5467;59.334;13.512;2022-12-07T08:26:51;-6.00;99.90
10828;DHT22;5467;59.334;13.512;2022-12-07T08:29:18;-6.00;99.90
10828;DHT22;5467;59.334;13.512;2022-12-07T08:31:46;-5.90;99.90
10828;DHT22;5467;59.334;13.512;2022-12-07T08:34:14;-5.90;99.90
10828;DHT22;5467;59.334;13.512;2022-12-07T08:36:41;-5.90;99.90
10828;DHT22;5467;59.334;13.512;2022-12-07T08:39:08;-6.00;99.90
10828;DHT22;5467;59.334;13.512;2022-12-07T08:41:35;-5.90;99.90
10828;DHT22;5467;59.334;13.512;2022-12-07T08:44:03;-6.10;99.90
10828;DHT22;5467;59.334;13.512;2022-12-07T08:46:32;-6.10;99.90
10828;DHT22;5467;59.334;13.512;2022-12-07T08:49:04;-6.10;99.90
10828;DHT22;5467;59.334;13.512;2022-12-07T08:51:33;-6.20;99.90
10828;DHT22;5467;59.334;13.512;2022-12-07T08:54:04;-6.20;99.90
10828;DHT22;5467;59.334;13.512;2022-12-07T08:56:32;-6.20;99.90
10828;DHT22;5467;59.334;13.512;2022-12-07T08:58:59;-6.20;99.90
10828;DHT22;5467;59.334;13.512;2022-12-07T09:01:26;-6.10;99.90
10828;DHT22;5467;59.334;13.512;2022-12-07T09:03:53;-6.10;99.90
10828;DHT22;5467;59.334;13.512;2022-12-07T09:06:20;-6.10;99.90
10828;DHT22;5467;59.334;13.512;2022-12-07T09:08:52;-6.00;99.90
10828;DHT22;5467;59.334;13.512;2022-12-07T09:11:20;-6.10;99.90
10828;DHT22;5467;59.334;13.512;2022-12-07T09:13:47;-6.10;99.90
10828;DHT22;5467;59.334;13.512;2022-12-07T09:16:14;-6.00;99.90
10828;DHT22;5467;59.334;13.512;2022-12-07T09:18:41;-5.90;99.90
10828;DHT22;5467;59.334;13.512;2022-12-07T09:21:09;-5.70;99.90
10828;DHT22;5467;59.334;13.512;2022-12-07T09:23:36;-5.70;99.90
10828;DHT22;5467;59.334;13.512;2022-12-07T09:26:05;-5.70;99.90
10828;DHT22;5467;59.334;13.512;2022-12-07T09:28:32;-5.70;99.90
10828;DHT22;5467;59.334;13.512;2022-12-07T09:30:59;-5.60;99.90
10828;DHT22;5467;59.334;13.512;2022-12-07T09:33:26;-5.50;99.90
10828;DHT22;5467;59.334;13.512;2022-12-07T09:35:53;-5.40;99.90
10828;DHT22;5467;59.334;13.512;2022-12-07T09:38:20;-5.50;99.90
10828;DHT22;5467;59.334;13.512;2022-12-07T09:40:48;-5.50;99.90
10828;DHT22;5467;59.334;13.512;2022-12-07T09:43:18;-5.50;99.90
10828;DHT22;5467;59.334;13.512;2022-12-07T09:45:46;-5.50;99.90
10828;DHT22;5467;59.334;13.512;2022-12-07T09:48:17;-5.60;99.90
10828;DHT22;5467;59.334;13.512;2022-12-07T09:50:45;-5.40;99.90
10828;DHT22;5467;59.334;13.512;2022-12-07T09:53:17;-5.40;99.90
10828;DHT22;5467;59.334;13.512;2022-12-07T09:55:47;-5.30;99.90
10828;DHT22;5467;59.334;13.512;2022-12-07T09:58:20;-5.40;99.90
10828;DHT22;5467;59.334;13.512;2022-12-07T10:00:48;-5.30;99.90
10828;DHT22;5467;59.334;13.512;2022-12-07T10:03:15;-5.30;99.90
10828;DHT22;5467;59.334;13.512;2022-12-07T10:05:45;-5.30;99.90
10828;DHT22;5467;59.334;13.512;2022-12-07T10:08:13;-5.30;99.90
10828;DHT22;5467;59.334;13.512;2022-12-07T10:10:41;-5.30;99.90
10828;DHT22;5467;59.334;13.512;2022-12-07T10:13:09;-5.40;99.90
10828;DHT22;5467;59.334;13.512;2022-12-07T10:15:47;-5.40;99.90
10828;DHT22;5467;59.334;13.512;2022-12-07T10:18:26;-5.20;99.90
10828;DHT22;5467;59.334;13.512;2022-12-07T10:21:02;-5.10;99.90
10828;DHT22;5467;59.334;13.512;2022-12-07T10:23:30;-5.10;99.90
10828;DHT22;5467;59.334;13.512;2022-12-07T10:25:57;-5.00;99.90
10828;DHT22;5467;59.334;13.512;2022-12-07T10:28:34;-5.00;99.90
10828;DHT22;5467;59.334;13.512;2022-12-07T10:31:15;-5.00;99.90
10828;DHT22;5467;59.334;13.512;2022-12-07T10:33:49;-4.90;99.90
10828;DHT22;5467;59.334;13.512;2022-12-07T10:36:19;-4.90;99.90
10828;DHT22;5467;59.334;13.512;2022-12-07T10:38:47;-4.90;99.90
10828;DHT22;5467;59.334;13.512;2022-12-07T10:41:15;-4.90;99.90
10828;DHT22;5467;59.334;13.512;2022-12-07T10:43:50;-4.80;99.90
10828;DHT22;5467;59.334;13.512;2022-12-07T10:50:10;-4.70;99.90
10828;DHT22;5467;59.334;13.512;2022-12-07T10:55:50;-4.70;99.90
10828;DHT22;5467;59.334;13.512;2022-12-07T10:58:36;-4.70;99.90
10828;DHT22;5467;59.334;13.512;2022-12-07T11:01:15;-4.70;99.90
10828;DHT22;5467;59.334;13.512;2022-12-07T11:04:13;-4.70;99.90
10828;DHT22;5467;59.334;13.512;2022-12-07T11:06:51;-4.70;99.90
10828;DHT22;5467;59.334;13.512;2022-12-07T11:09:46;-4.50;99.90
10828;DHT22;5467;59.334;13.512;2022-12-07T11:12:24;-4.60;99.90
10828;DHT22;5467;59.334;13.512;2022-12-07T11:14:56;-4.50;99.90
10828;DHT22;5467;59.334;13.512;2022-12-07T11:17:28;-4.60;99.90
10828;DHT22;5467;59.334;13.512;2022-12-07T11:20:12;-4.50;99.90
10828;DHT22;5467;59.334;13.512;2022-12-07T11:22:46;-4.40;99.90
10828;DHT22;5467;59.334;13.512;2022-12-07T11:25:20;-4.40;99.90
10828;DHT22;5467;59.334;13.512;2022-12-07T11:28:03;-4.50;99.90
10828;DHT22;5467;59.334;13.512;2022-12-07T11:30:36;-4.50;99.90
10828;DHT22;5467;59.334;13.512;2022-12-07T11:33:13;-4.40;99.90
10828;DHT22;5467;59.334;13.512;2022-12-07T11:35:54;-4.30;99.90
10828;DHT22;5467;59.334;13.512;2022-12-07T11:38:32;-4.40;99.90
10828;DHT22;5467;59.334;13.512;2022-12-07T11:41:02;-4.20;99.90
10828;DHT22;5467;59.334;13.512;2022-12-07T11:43:48;-4.20;99.90
10828;DHT22;5467;59.334;13.512;2022-12-07T11:46:17;-4.10;99.90
10828;DHT22;5467;59.334;13.512;2022-12-07T11:48:47;-4.00;99.90
10828;DHT22;5467;59.334;13.512;2022-12-07T11:51:18;-4.10;99.90
10828;DHT22;5467;59.334;13.512;2022-12-07T11:53:51;-4.00;99.90
10828;DHT22;5467;59.334;13.512;2022-12-07T11:56:21;-4.00;99.90
10828;DHT22;5467;59.334;13.512;2022-12-07T11:58:52;-4.00;99.90
10828;DHT22;5467;59.334;13.512;2022-12-07T12:01:35;-4.00;99.90
10828;DHT22;5467;59.334;13.512;2022-12-07T12:04:13;-4.10;99.90
10828;DHT22;5467;59.334;13.512;2022-12-07T12:06:43;-4.00;99.90
10828;DHT22;5467;59.334;13.512;2022-12-07T12:09:14;-4.00;99.90
10828;DHT22;5467;59.334;13.512;2022-12-07T12:12:17;-4.10;99.90
10828;DHT22;5467;59.334;13.512;2022-12-07T12:14:58;-4.10;99.90
10828;DHT22;5467;59.334;13.512;2022-12-07T12:17:56;-4.00;99.90
10828;DHT22;5467;59.334;13.512;2022-12-07T12:20:30;-4.00;99.90
10828;DHT22;5467;59.334;13.512;2022-12-07T12:23:01;-3.90;99.90
10828;DHT22;5467;59.334;13.512;2022-12-07T12:25:39;-3.90;99.90
10828;DHT22;5467;59.334;13.512;2022-12-07T12:28:20;-3.80;99.90
10828;DHT22;5467;59.334;13.512;2022-12-07T12:31:05;-3.80;99.90
10828;DHT22;5467;59.334;13.512;2022-12-07T12:33:33;-3.80;99.90
10828;DHT22;5467;59.334;13.512;2022-12-07T12:36:20;-3.90;99.90
10828;DHT22;5467;59.334;13.512;2022-12-07T12:38:51;-4.00;99.90
10828;DHT22;5467;59.334;13.512;2022-12-07T12:41:55;-4.00;99.90
10828;DHT22;5467;59.334;13.512;2022-12-07T12:45:17;-4.00;99.90
10828;DHT22;5467;59.334;13.512;2022-12-07T12:47:54;-4.10;99.90
10828;DHT22;5467;59.334;13.512;2022-12-07T12:50:24;-4.00;99.90
10828;DHT22;5467;59.334;13.512;2022-12-07T12:53:14;-4.00;99.90
10828;DHT22;5467;59.334;13.512;2022-12-07T12:59:26;-4.20;99.90
10828;DHT22;5467;59.334;13.512;2022-12-07T13:02:06;-4.40;99.90
10828;DHT22;5467;59.334;13.512;2022-12-07T13:04:52;-4.50;99.90
10828;DHT22;5467;59.334;13.512;2022-12-07T13:07:53;-4.50;99.90
10828;DHT22;5467;59.334;13.512;2022-12-07T13:10:34;-4.60;99.90
10828;DHT22;5467;59.334;13.512;2022-12-07T13:13:05;-4.70;99.90
10828;DHT22;5467;59.334;13.512;2022-12-07T13:15:37;-4.70;99.90
10828;DHT22;5467;59.334;13.512;2022-12-07T13:18:23;-4.70;99.90
10828;DHT22;5467;59.334;13.512;2022-12-07T13:20:55;-4.80;99.90
10828;DHT22;5467;59.334;13.512;2022-12-07T13:23:31;-4.90;99.90
10828;DHT22;5467;59.334;13.512;2022-12-07T13:26:12;-4.80;99.90
10828;DHT22;5467;59.334;13.512;2022-12-07T13:28:43;-4.80;99.90
10828;DHT22;5467;59.334;13.512;2022-12-07T13:31:21;-4.80;99.90
10828;DHT22;5467;59.334;13.512;2022-12-07T13:33:50;-4.80;99.90
10828;DHT22;5467;59.334;13.512;2022-12-07T13:36:22;-4.90;99.90
10828;DHT22;5467;59.334;13.512;2022-12-07T13:38:55;-4.90;99.90
10828;DHT22;5467;59.334;13.512;2022-12-07T13:41:23;-5.00;99.90
10828;DHT22;5467;59.334;13.512;2022-12-07T13:43:54;-4.90;99.90
10828;DHT22;5467;59.334;13.512;2022-12-07T13:46:34;-5.00;99.90
10828;DHT22;5467;59.334;13.512;2022-12-07T13:49:02;-5.10;99.90
10828;DHT22;5467;59.334;13.512;2022-12-07T13:51:41;-5.20;99.90
10828;DHT22;5467;59.334;13.512;2022-12-07T13:54:11;-5.20;99.90
10828;DHT22;5467;59.334;13.512;2022-12-07T13:56:38;-5.40;99.90
10828;DHT22;5467;59.334;13.512;2022-12-07T13:59:13;-5.50;99.90
10828;DHT22;5467;59.334;13.512;2022-12-07T14:01:42;-5.50;99.90
10828;DHT22;5467;59.334;13.512;2022-12-07T14:07:00;-5.60;99.90
10828;DHT22;5467;59.334;13.512;2022-12-07T14:09:29;-5.70;99.90
10828;DHT22;5467;59.334;13.512;2022-12-07T14:11:57;-5.80;99.90
10828;DHT22;5467;59.334;13.512;2022-12-07T14:14:26;-5.80;99.90
10828;DHT22;5467;59.334;13.512;2022-12-07T14:17:01;-5.90;99.90
10828;DHT22;5467;59.334;13.512;2022-12-07T14:19:46;-6.00;99.90
10828;DHT22;5467;59.334;13.512;2022-12-07T14:22:26;-5.90;99.90
10828;DHT22;5467;59.334;13.512;2022-12-07T14:25:18;-5.90;99.90
10828;DHT22;5467;59.334;13.512;2022-12-07T14:27:54;-5.90;99.90
10828;DHT22;5467;59.334;13.512;2022-12-07T14:30:23;-5.80;99.90
10828;DHT22;5467;59.334;13.512;2022-12-07T14:32:54;-5.90;99.90
10828;DHT22;5467;59.334;13.512;2022-12-07T14:35:22;-5.80;99.90
10828;DHT22;5467;59.334;13.512;2022-12-07T14:37:49;-5.80;99.90
10828;DHT22;5467;59.334;13.512;2022-12-07T14:40:18;-5.80;99.90
10828;DHT22;5467;59.334;13.512;2022-12-07T14:42:47;-5.80;99.90
10828;DHT22;5467;59.334;13.512;2022-12-07T14:45:17;-5.70;99.90
10828;DHT22;5467;59.334;13.512;2022-12-07T14:47:45;-5.80;99.90
10828;DHT22;5467;59.334;13.512;2022-12-07T14:50:16;-5.80;99.90
10828;DHT22;5467;59.334;13.512;2022-12-07T14:52:45;-5.90;99.90
10828;DHT22;5467;59.334;13.512;2022-12-07T14:55:18;-5.90;99.90
10828;DHT22;5467;59.334;13.512;2022-12-07T14:57:47;-6.00;99.90
10828;DHT22;5467;59.334;13.512;2022-12-07T15:00:15;-6.00;99.90
10828;DHT22;5467;59.334;13.512;2022-12-07T15:02:43;-5.90;99.90
10828;DHT22;5467;59.334;13.512;2022-12-07T15:05:10;-5.90;99.90
10828;DHT22;5467;59.334;13.512;2022-12-07T15:07:39;-5.90;99.90
10828;DHT22;5467;59.334;13.512;2022-12-07T15:10:13;-5.90;99.90
10828;DHT22;5467;59.334;13.512;2022-12-07T15:12:41;-6.00;99.90
10828;DHT22;5467;59.334;13.512;2022-12-07T15:15:09;-6.00;99.90
10828;DHT22;5467;59.334;13.512;2022-12-07T15:17:36;-6.10;99.90
10828;DHT22;5467;59.334;13.512;2022-12-07T15:20:03;-6.20;99.90
10828;DHT22;5467;59.334;13.512;2022-12-07T15:22:31;-6.30;99.90
10828;DHT22;5467;59.334;13.512;2022-12-07T15:24:59;-6.40;99.90
10828;DHT22;5467;59.334;13.512;2022-12-07T15:27:27;-6.50;99.90
10828;DHT22;5467;59.334;13.512;2022-12-07T15:29:54;-6.60;99.90
10828;DHT22;5467;59.334;13.512;2022-12-07T15:32:21;-6.70;99.90
10828;DHT22;5467;59.334;13.512;2022-12-07T15:34:48;-6.80;99.90
10828;DHT22;5467;59.334;13.512;2022-12-07T15:37:16;-6.80;99.90
10828;DHT22;5467;59.334;13.512;2022-12-07T15:39:43;-6.80;99.90
10828;DHT22;5467;59.334;13.512;2022-12-07T15:42:11;-6.90;99.90
10828;DHT22;5467;59.334;13.512;2022-12-07T15:44:38;-6.90;99.90
10828;DHT22;5467;59.334;13.512;2022-12-07T15:47:23;-7.10;99.90
10828;DHT22;5467;59.334;13.512;2022-12-07T15:49:50;-7.20;99.90
10828;DHT22;5467;59.334;13.512;2022-12-07T15:52:17;-7.20;99.90
10828;DHT22;5467;59.334;13.512;2022-12-07T15:54:44;-7.20;99.90
10828;DHT22;5467;59.334;13.512;2022-12-07T15:57:14;-7.30;99.90
10828;DHT22;5467;59.334;13.512;2022-12-07T15:59:41;-7.30;99.90
10828;DHT22;5467;59.334;13.512;2022-12-07T16:02:08;-7.40;99.90
10828;DHT22;5467;59.334;13.512;2022-12-07T16:04:36;-7.50;99.90
10828;DHT22;5467;59.334;13.512;2022-12-07T16:07:03;-7.40;99.90